Time;durP1;ratioP1;P1;durP2;ratioP2;P2;SDS_P1;SDS_P2;PMS_P1;PMS_P2;Temp;Humidity;BMP_temperature;BMP_pressure;BME280_temperature;BME280_humidity;BME280_pressure;Samples;Min_cycle;Max_cycle;Signal;HPM_P1;HPM_P2
2021/11/28 00:02:26;;;;;;;25.50;15.10;;;;;;;-0.12;100.00;98904.11;1711687;82;21062;-84
2021/11/28 00:04:54;;;;;;;33.02;17.70;;;;;;;-0.03;100.00;98927.27;1707985;83;21057;-83
2021/11/28 00:15:15;;;;;;;37.63;19.12;;;;;;;-0.15;100.00;98928.74;1648541;85;21091;-81
2021/11/28 00:17:42;;;;;;;34.50;20.27;;;;;;;-0.17;100.00;98930.05;1655173;85;21547;-78
2021/11/28 00:20:13;;;;;;;34.35;18.32;;;;;;;-0.20;100.00;98929.25;1649532;85;21061;-81
2021/11/28 00:22:41;;;;;;;31.87;17.40;;;;;;;-0.23;100.00;98926.23;1649419;85;21071;-81
2021/11/28 00:25:14;;;;;;;31.00;17.57;;;;;;;-0.26;100.00;98925.84;1651243;85;21178;-82
2021/11/28 00:27:42;;;;;;;32.42;17.90;;;;;;;-0.32;100.00;98922.47;1655117;85;21035;-85
2021/11/28 00:30:15;;;;;;;34.08;18.70;;;;;;;-0.38;100.00;98935.50;1648365;85;21104;-82
2021/11/28 00:32:42;;;;;;;32.17;18.30;;;;;;;-0.44;100.00;98938.58;1649375;86;21103;-81
2021/11/28 00:35:10;;;;;;;32.85;18.55;;;;;;;-0.49;100.00;98939.49;1648910;85;21654;-82
2021/11/28 00:37:38;;;;;;;60.92;24.75;;;;;;;-0.51;100.00;98932.18;1654076;85;21839;-82
2021/11/28 00:40:06;;;;;;;51.20;21.17;;;;;;;-0.55;100.00;98936.96;1652389;85;21114;-83
2021/11/28 00:42:33;;;;;;;35.58;18.67;;;;;;;-0.58;100.00;98937.01;1646163;86;21133;-79
2021/11/28 00:45:00;;;;;;;37.00;19.73;;;;;;;-0.61;100.00;98943.52;1643875;86;21042;-82
2021/11/28 00:47:26;;;;;;;40.12;19.73;;;;;;;-0.60;100.00;98948.65;1649511;87;21044;-78
2021/11/28 00:50:23;;;;;;;35.55;19.27;;;;;;;-0.59;100.00;98943.06;1648893;85;21676;-77
2021/11/28 00:52:34;;;;;;;;;;;;;;;-0.60;100.00;98947.80;1648147;87;21142;-78
2021/11/28 00:55:01;;;;;;;38.65;19.12;;;;;;;-0.58;100.00;98951.23;1654387;85;20735;-78
2021/11/28 00:57:28;;;;;;;31.75;17.75;;;;;;;-0.58;100.00;98950.78;1671475;85;21038;-79
2021/11/28 00:59:56;;;;;;;36.77;18.12;;;;;;;-0.59;100.00;98941.77;1649016;86;21066;-80
2021/11/28 01:02:23;;;;;;;28.12;14.15;;;;;;;-0.61;100.00;98938.34;1687714;84;21121;-81
2021/11/28 01:04:50;;;;;;;27.98;15.63;;;;;;;-0.62;100.00;98939.20;1667837;84;21610;-79
2021/11/28 01:07:20;;;;;;;34.15;16.55;;;;;;;-0.64;100.00;98945.27;1638148;87;21101;-80
2021/11/28 01:09:45;;;;;;;33.75;18.42;;;;;;;-0.64;100.00;98940.09;1628599;87;21069;-80
2021/11/28 01:12:12;;;;;;;32.08;17.30;;;;;;;-0.69;100.00;98935.41;1686659;82;21058;-80
2021/11/28 01:14:39;;;;;;;30.65;15.83;;;;;;;-0.74;100.00;98941.48;1706093;84;21156;-80
2021/11/28 01:17:07;;;;;;;32.50;16.17;;;;;;;-0.78;100.00;98943.27;1705618;84;21034;-79
2021/11/28 01:19:34;;;;;;;20.85;11.88;;;;;;;-0.80;100.00;98946.30;1701321;84;21093;-79
2021/11/28 01:22:07;;;;;;;24.85;13.98;;;;;;;-0.82;100.00;98945.45;1676133;84;21063;-79
2021/11/28 01:24:35;;;;;;;33.50;17.77;;;;;;;-0.81;100.00;98951.02;1676039;84;21131;-80
2021/11/28 01:27:03;;;;;;;35.75;18.90;;;;;;;-0.81;100.00;98950.17;1677452;85;21158;-79
2021/11/28 01:29:31;;;;;;;34.67;19.32;;;;;;;-0.83;100.00;98948.89;1661319;84;21103;-81
2021/11/28 01:32:02;;;;;;;30.80;17.30;;;;;;;-0.83;100.00;98953.21;1677820;84;21019;-80
2021/11/28 01:34:30;;;;;;;30.27;17.65;;;;;;;-0.84;100.00;98957.53;1677363;84;21606;-80
2021/11/28 01:36:57;;;;;;;29.77;17.12;;;;;;;-0.84;100.00;98952.36;1675398;84;21626;-80
2021/11/28 01:39:25;;;;;;;34.75;17.60;;;;;;;-0.87;100.00;98949.81;1680538;84;21109;-83
2021/11/28 01:41:52;;;;;;;33.25;17.30;;;;;;;-0.89;100.00;98950.27;1693878;84;22301;-82
2021/11/28 01:44:18;;;;;;;38.25;18.17;;;;;;;-0.93;100.00;98943.41;1676900;84;21111;-80
2021/11/28 01:46:46;;;;;;;31.02;17.55;;;;;;;-0.99;100.00;98943.04;1702666;82;21058;-79
2021/11/28 01:49:14;;;;;;;25.65;13.40;;;;;;;-1.05;100.00;98948.25;1704730;84;21085;-81
2021/11/28 01:51:42;;;;;;;24.72;12.58;;;;;;;-1.06;100.00;98941.35;1676289;84;21512;-78
2021/11/28 01:54:13;;;;;;;28.50;16.42;;;;;;;-1.04;100.00;98947.81;1676471;85;21617;-78
2021/11/28 01:56:46;;;;;;;20.65;11.97;;;;;;;-1.04;100.00;98940.91;1684083;84;21549;-77
2021/11/28 01:59:13;;;;;;;30.37;16.90;;;;;;;-1.02;100.00;98945.62;1676509;85;21066;-82
2021/11/28 02:01:42;;;;;;;32.03;17.62;;;;;;;-1.02;100.00;98944.78;1675912;85;21098;-77
2021/11/28 02:04:18;;;;;;;57.88;25.00;;;;;;;-1.03;100.00;98937.91;1676409;85;21934;-78
2021/11/28 02:06:47;;;;;;;40.85;20.48;;;;;;;-1.04;100.00;98937.48;1678452;85;21118;-80
2021/11/28 02:09:16;;;;;;;42.58;21.35;;;;;;;-1.06;100.00;98951.28;1686153;84;21074;-77
2021/11/28 02:11:45;;;;;;;48.50;21.65;;;;;;;-1.06;100.00;98957.73;1691764;84;21054;-80
2021/11/28 02:14:13;;;;;;;40.35;21.73;;;;;;;-1.08;100.00;98962.06;1674519;84;21107;-83
2021/11/28 02:16:49;;;;;;;45.30;22.82;;;;;;;-1.09;100.00;98962.91;1692952;84;21102;-82
2021/11/28 02:19:16;;;;;;;46.85;23.85;;;;;;;-1.10;100.00;98960.36;1700740;82;21069;-83
2021/11/28 02:21:42;;;;;;;54.03;23.95;;;;;;;-1.12;100.00;98957.78;1674386;85;21084;-82
2021/11/28 02:24:10;;;;;;;47.35;23.73;;;;;;;-1.12;100.00;98955.20;1675008;85;21633;-82
2021/11/28 02:26:37;;;;;;;49.83;23.62;;;;;;;-1.14;100.00;98954.35;1674870;85;21044;-81
2021/11/28 02:29:03;;;;;;;43.42;21.23;;;;;;;-1.19;100.00;98945.80;1675133;85;21522;-82
2021/11/28 02:31:32;;;;;;;42.23;19.48;;;;;;;-1.22;100.00;98945.83;1698037;84;21380;-83
2021/11/28 02:33:59;;;;;;;36.77;19.07;;;;;;;-1.26;100.00;98938.97;1703402;84;21051;-81
2021/11/28 02:36:26;;;;;;;48.42;24.40;;;;;;;-1.27;100.00;98934.66;1677098;84;21051;-85
2021/11/28 02:38:54;;;;;;;37.95;18.02;;;;;;;-1.28;100.00;98932.95;1674592;84;21759;-86
2021/11/28 02:41:22;;;;;;;45.63;23.40;;;;;;;-1.29;100.00;98933.39;1674778;84;21154;-84
2021/11/28 02:43:49;;;;;;;43.13;20.30;;;;;;;-1.27;100.00;98934.24;1632484;87;21138;-85
2021/11/28 02:46:16;;;;;;;43.17;20.82;;;;;;;-1.27;100.00;98935.53;1700948;84;21042;-84
2021/11/28 02:48:42;;;;;;;37.03;19.35;;;;;;;-1.29;100.00;98919.19;1703449;84;22057;-85
2021/11/28 02:51:11;;;;;;;44.03;20.30;;;;;;;-1.33;100.00;98917.50;1680308;84;21101;-87
2021/11/28 02:55:56;;;;;;;48.03;21.97;;;;;;;-1.48;100.00;98918.45;1793398;79;23073;-84
2021/11/28 02:58:24;;;;;;;49.67;24.05;;;;;;;-1.48;100.00;98918.45;1755338;81;21068;-83
2021/11/28 03:01:04;;;;;;;57.00;24.20;;;;;;;-1.52;100.00;98907.76;1754924;81;21577;-85
2021/11/28 03:03:31;;;;;;;59.40;28.38;;;;;;;-1.55;100.00;98899.16;1754674;81;20982;-81
2021/11/28 03:05:58;;;;;;;53.05;22.67;;;;;;;-1.57;100.00;98895.30;1740771;81;21074;-84
2021/11/28 03:08:25;;;;;;;60.03;25.62;;;;;;;-1.57;100.00;98901.75;1739711;81;21564;-86
2021/11/28 03:10:54;;;;;;;42.67;20.62;;;;;;;-1.55;100.00;98907.76;1745405;81;21690;-86
2021/11/28 03:13:31;;;;;;;39.75;20.25;;;;;;;-1.53;100.00;98911.19;1720819;83;21533;-83
2021/11/28 03:16:05;;;;;;;38.67;19.62;;;;;;;-1.52;100.00;98925.83;1716115;83;21067;-83
2021/11/28 04:47:04;;;;;;;38.98;17.57;;;;;;;-1.54;100.00;98931.44;1698327;82;21662;-82
2021/11/28 04:49:32;;;;;;;40.35;23.18;;;;;;;-1.50;100.00;98930.52;1720287;81;21134;-81
2021/11/28 04:51:59;;;;;;;42.55;22.37;;;;;;;-1.48;100.00;98930.08;1711545;82;21108;-81
2021/11/28 04:54:26;;;;;;;46.53;23.10;;;;;;;-1.44;100.00;98936.53;1692504;84;21048;-81
2021/11/28 04:56:54;;;;;;;45.73;24.92;;;;;;;-1.43;100.00;98946.83;1723902;81;21686;-83
2021/11/28 04:59:23;;;;;;;47.03;25.00;;;;;;;-1.41;100.00;98952.84;1751820;81;21102;-78
2021/11/28 05:01:50;;;;;;;52.00;26.33;;;;;;;-1.39;100.00;98938.20;1732996;81;21542;-80
2021/11/28 05:04:21;;;;;;;44.88;22.75;;;;;;;-1.36;100.00;98945.06;1719223;82;21643;-75
2021/11/28 05:06:50;;;;;;;46.23;24.92;;;;;;;-1.35;100.00;98951.95;1702567;83;21132;-73
2021/11/28 05:09:25;;;;;;;59.58;27.00;;;;;;;-1.31;100.00;98954.95;1690204;83;21082;-74
2021/11/28 05:11:52;;;;;;;46.90;25.35;;;;;;;-1.29;100.00;98954.47;1660663;85;21089;-75
2021/11/28 05:14:20;;;;;;;48.95;21.97;;;;;;;-1.33;100.00;98951.07;1640379;87;21153;-75
2021/11/28 05:16:47;;;;;;;41.83;24.20;;;;;;;-1.34;100.00;98960.11;1640854;87;21156;-76
2021/11/28 05:19:18;;;;;;;47.93;23.47;;;;;;;-1.32;100.00;98959.23;1639773;87;21108;-75
2021/11/28 05:21:54;;;;;;;44.13;22.17;;;;;;;-1.29;100.00;98960.52;1640321;85;21100;-74
2021/11/28 05:24:22;;;;;;;43.73;23.98;;;;;;;-1.26;100.00;98960.92;1653070;85;21058;-77
2021/11/28 05:26:51;;;;;;;41.77;21.73;;;;;;;-1.23;100.00;98966.05;1655827;86;21118;-73
2021/11/28 05:29:21;;;;;;;45.45;24.25;;;;;;;-1.23;100.00;98964.77;1654801;86;21077;-77
2021/11/28 05:31:48;;;;;;;47.95;24.85;;;;;;;-1.24;100.00;98968.23;1666893;84;22157;-76
2021/11/28 05:34:33;;;;;;;76.97;30.88;;;;;;;-1.23;100.00;98967.34;1668908;85;21062;-76
2021/11/28 05:37:18;;;;;;;85.00;37.75;;;;;;;-1.22;100.00;98970.37;1647449;85;21116;-79
2021/11/28 05:39:47;;;;;;;51.88;28.35;;;;;;;-1.16;100.00;98974.17;1649853;85;21154;-82
2021/11/28 05:42:14;;;;;;;49.45;24.43;;;;;;;-1.00;100.00;98969.73;1647882;85;21475;-79
2021/11/28 05:44:41;;;;;;;36.42;19.57;;;;;;;-0.94;100.00;98970.13;1641308;87;21091;-78
2021/11/28 05:47:12;;;;;;;44.75;21.90;;;;;;;-0.90;100.00;98970.50;1607743;87;21091;-70
2021/11/28 05:49:53;;;;;;;57.62;25.90;;;;;;;-0.88;100.00;98969.61;1603126;87;21151;-70
2021/11/28 05:52:28;;;;;;;38.15;19.07;;;;;;;-0.84;100.00;98973.04;1627239;87;21548;-71
2021/11/28 05:54:56;;;;;;;40.75;21.65;;;;;;;-0.84;100.00;98975.62;1640482;86;21076;-70
2021/11/28 05:57:23;;;;;;;38.02;20.30;;;;;;;-0.83;100.00;98976.03;1644346;85;21095;-67
2021/11/28 05:59:50;;;;;;;40.10;21.20;;;;;;;-0.79;100.00;98976.43;1637425;85;21102;-68
2021/11/28 06:02:17;;;;;;;39.38;21.80;;;;;;;-0.76;100.00;98966.08;1650551;85;21144;-68
2021/11/28 06:04:45;;;;;;;33.65;18.62;;;;;;;-0.71;100.00;98976.38;1622542;85;21830;-69
2021/11/28 06:07:30;;;;;;;35.52;20.05;;;;;;;-0.73;100.00;98972.95;1645055;85;21683;-70
2021/11/28 06:09:59;;;;;;;35.58;21.37;;;;;;;-0.74;100.00;98981.55;1643450;85;21140;-68
2021/11/28 06:12:26;;;;;;;33.02;19.85;;;;;;;-0.73;100.00;98976.38;1642290;87;21129;-71
2021/11/28 06:14:56;;;;;;;37.10;19.98;;;;;;;-0.72;100.00;98976.78;1641985;87;21124;-68
2021/11/28 06:17:23;;;;;;;28.75;16.62;;;;;;;-0.71;100.00;98990.16;1642074;87;22296;-69
2021/11/28 06:20:09;;;;;;;31.52;16.80;;;;;;;-0.74;100.00;98984.99;1642150;87;21125;-69
2021/11/28 06:22:54;;;;;;;31.12;18.37;;;;;;;-0.75;100.00;98992.78;1640606;87;21532;-69
2021/11/28 06:25:21;;;;;;;33.30;19.45;;;;;;;-0.87;100.00;98975.66;1641782;87;21140;-69
2021/11/28 06:27:51;;;;;;;30.88;17.75;;;;;;;-0.76;100.00;98988.05;1617606;87;21655;-70
2021/11/28 06:30:20;;;;;;;26.62;15.35;;;;;;;-0.75;100.00;98979.41;1645839;85;21143;-69
2021/11/28 06:32:52;;;;;;;36.73;17.98;;;;;;;-0.72;100.00;98970.33;1614953;85;21057;-69
2021/11/28 06:35:36;;;;;;;25.80;14.53;;;;;;;-0.68;100.00;98971.16;1658039;85;21068;-69
2021/11/28 06:38:21;;;;;;;34.60;15.63;;;;;;;-0.66;100.00;98972.86;1644436;85;21454;-70
2021/11/28 06:41:07;;;;;;;37.60;17.12;;;;;;;-0.66;100.00;98968.98;1641659;85;21100;-69
2021/11/28 06:43:34;;;;;;;34.10;15.35;;;;;;;-0.65;100.00;98979.73;1645162;85;21755;-68
2021/11/28 06:46:01;;;;;;;62.20;26.68;;;;;;;-0.68;100.00;98974.59;1635766;85;21088;-69
2021/11/28 06:48:30;;;;;;;76.67;23.70;;;;;;;-0.64;100.00;98981.91;1628391;85;21290;-69
2021/11/28 06:51:14;;;;;;;37.65;17.95;;;;;;;-0.64;100.00;98984.05;1583104;90;21765;-70
2021/11/28 06:53:40;;;;;;;25.40;13.30;;;;;;;-0.59;100.00;98980.56;1625517;85;21144;-69
2021/11/28 06:56:12;;;;;;;36.03;15.18;;;;;;;-0.61;100.00;98984.45;1617545;85;21253;-70
2021/11/28 06:58:46;;;;;;;22.05;13.20;;;;;;;-0.59;100.00;98992.20;1645593;85;21062;-70
2021/11/28 07:01:14;;;;;;;21.42;11.97;;;;;;;-0.61;100.00;98993.94;1695546;83;21990;-71
2021/11/28 07:03:42;;;;;;;26.95;13.35;;;;;;;-0.68;100.00;98997.87;1693720;83;21144;-68
2021/11/28 07:06:25;;;;;;;24.00;12.88;;;;;;;-0.66;100.00;98998.72;1625161;86;21136;-69
2021/11/28 07:08:54;;;;;;;26.27;13.55;;;;;;;-0.57;100.00;98999.51;1668520;84;21105;-69
2021/11/28 07:11:21;;;;;;;24.87;13.22;;;;;;;-0.47;100.00;98994.65;1696669;83;21263;-70
2021/11/28 07:13:51;;;;;;;36.90;13.60;;;;;;;-0.39;100.00;98996.73;1726275;83;21072;-69
2021/11/28 07:16:19;;;;;;;18.20;11.75;;;;;;;-0.34;100.00;98994.94;1711289;83;21647;-70
2021/11/28 07:18:46;;;;;;;32.13;11.95;;;;;;;-0.29;100.00;98993.16;1650688;86;21140;-70
2021/11/28 07:21:13;;;;;;;32.00;16.35;;;;;;;-0.27;100.00;98991.41;1678736;83;21112;-70
2021/11/28 07:23:41;;;;;;;24.57;13.32;;;;;;;-0.22;100.00;98994.80;1693973;83;21086;-69
2021/11/28 07:26:09;;;;;;;38.83;16.12;;;;;;;-0.15;100.00;98992.14;1695064;83;21115;-69
2021/11/28 07:28:40;;;;;;;44.67;17.75;;;;;;;-0.06;100.00;98992.03;1692056;83;21621;-70
2021/11/28 07:31:08;;;;;;;33.70;20.12;;;;;;;0.03;100.00;98989.33;1699371;81;21557;-70
2021/11/28 07:33:53;;;;;;;39.58;15.55;;;;;;;0.11;100.00;98986.19;1691990;83;21856;-70
2021/11/28 07:36:37;;;;;;;34.73;16.50;;;;;;;0.19;100.00;98985.66;1621844;86;21199;-71
2021/11/28 07:39:07;;;;;;;20.43;13.10;;;;;;;0.29;100.00;98995.89;1667544;82;21055;-71
2021/11/28 07:41:36;;;;;;;35.65;15.95;;;;;;;0.37;100.00;98985.00;1695250;83;21145;-68
2021/11/28 07:44:21;;;;;;;26.93;13.98;;;;;;;0.49;100.00;98982.23;1620348;86;22244;-69
2021/11/28 07:46:52;;;;;;;32.28;13.15;;;;;;;0.53;100.00;98977.42;1669089;83;21200;-68
2021/11/28 07:49:22;;;;;;;35.00;16.80;;;;;;;0.55;100.00;98992.52;1687531;83;21109;-70
2021/11/28 07:51:50;;;;;;;32.40;16.37;;;;;;;0.57;100.00;98997.64;1697495;83;21152;-69
2021/11/28 07:54:21;;;;;;;39.70;15.50;;;;;;;0.62;100.00;98992.83;1670384;83;21161;-70
2021/11/28 07:56:48;;;;;;;43.80;14.73;;;;;;;0.65;100.00;98994.97;1696901;84;21782;-69
2021/11/28 07:59:34;;;;;;;28.65;14.15;;;;;;;0.66;100.00;98991.03;1693933;83;21148;-69
2021/11/28 08:02:03;;;;;;;29.45;15.38;;;;;;;0.67;100.00;98981.52;1691725;84;21062;-69
2021/11/28 08:04:42;;;;;;;18.98;12.23;;;;;;;0.73;100.00;98990.05;1691267;81;21129;-69
2021/11/28 08:07:27;;;;;;;18.62;11.95;;;;;;;0.81;100.00;98987.37;1692301;84;21715;-69
2021/11/28 08:10:00;;;;;;;37.20;16.02;;;;;;;0.80;100.00;98996.00;1673107;84;21588;-67
2021/11/28 08:12:26;;;;;;;37.53;13.13;;;;;;;0.75;100.00;98986.16;1692618;84;21561;-66
2021/11/28 08:14:55;;;;;;;25.75;13.95;;;;;;;0.74;100.00;98990.94;1692425;84;21114;-70
2021/11/28 08:17:22;;;;;;;34.75;14.73;;;;;;;0.80;100.00;98988.23;1692190;84;21102;-70
2021/11/28 08:19:50;;;;;;;30.95;15.58;;;;;;;0.92;100.00;98985.46;1694982;83;21034;-68
2021/11/28 08:22:16;;;;;;;73.37;18.10;;;;;;;0.96;100.00;98976.73;1691182;83;21097;-69
2021/11/28 08:24:44;;;;;;;41.70;15.30;;;;;;;0.99;100.00;98978.41;1697170;84;21146;-70
2021/11/28 08:27:11;;;;;;;26.15;12.80;;;;;;;0.98;100.00;98967.64;1704414;83;21093;-69
2021/11/28 08:29:40;;;;;;;32.78;13.98;;;;;;;0.93;100.00;98976.79;1696777;83;21114;-69
2021/11/28 08:32:12;;;;;;;39.70;15.78;;;;;;;0.89;100.00;98989.38;1671149;83;21054;-69
2021/11/28 08:34:57;;;;;;;42.98;15.20;;;;;;;0.92;100.00;98991.94;1716938;83;21675;-67
2021/11/28 08:37:24;;;;;;;32.28;16.07;;;;;;;0.97;100.00;98995.31;1697197;84;21114;-68
2021/11/28 08:39:50;;;;;;;38.08;15.95;;;;;;;0.99;100.00;98997.44;1697850;83;21153;-68
2021/11/28 08:42:17;;;;;;;42.45;14.95;;;;;;;1.04;100.00;99007.28;1701236;83;21153;-69
2021/11/28 08:44:44;;;;;;;39.92;15.38;;;;;;;1.03;100.00;98999.08;1697850;84;21102;-71
2021/11/28 08:47:11;;;;;;;34.38;16.50;;;;;;;1.06;100.00;98996.91;1696924;84;21621;-67
2021/11/28 08:49:40;;;;;;;37.83;15.15;;;;;;;1.16;100.00;98993.70;1696572;83;21136;-70
2021/11/28 08:52:08;;;;;;;42.13;14.40;;;;;;;1.28;100.00;98983.11;1695414;83;21164;-69
2021/11/28 08:54:36;;;;;;;45.95;14.60;;;;;;;1.34;100.00;98975.23;1696599;84;21293;-68
2021/11/28 08:57:04;;;;;;;27.07;13.90;;;;;;;1.33;100.00;98969.61;1697166;84;21132;-70
2021/11/28 08:59:32;;;;;;;42.73;16.35;;;;;;;1.38;100.00;98973.41;1696659;83;21073;-69
2021/11/28 09:01:58;;;;;;;32.03;14.68;;;;;;;1.38;100.00;98973.00;1697444;84;21458;-70
2021/11/28 09:04:25;;;;;;;83.60;19.05;;;;;;;1.40;100.00;98969.05;1694276;83;21082;-68
2021/11/28 09:06:52;;;;;;;27.50;15.13;;;;;;;1.40;100.00;98961.27;1696680;84;21594;-70
2021/11/28 09:09:18;;;;;;;49.60;17.82;;;;;;;1.38;100.00;98965.21;1696482;84;21070;-70
2021/11/28 09:11:45;;;;;;;51.02;21.42;;;;;;;1.51;100.00;98971.46;1696229;84;21134;-70
2021/11/28 09:14:12;;;;;;;48.87;19.23;;;;;;;1.51;100.00;98971.46;1696566;84;21508;-70
2021/11/28 09:16:39;;;;;;;65.10;26.50;;;;;;;1.69;100.00;98968.52;1696749;84;21620;-70
2021/11/28 09:19:15;;;;;;;46.35;18.65;;;;;;;1.69;100.00;98968.52;1689421;84;21078;-69
2021/11/28 09:21:37;;;;;;;36.83;18.82;;;;;;;1.73;100.00;98979.25;1696668;84;21169;-69
2021/11/28 09:26:49;;;;;;;43.55;18.35;;;;;;;1.85;100.00;98976.86;1697688;84;21761;-68
2021/11/28 09:29:16;;;;;;;37.95;17.32;;;;;;;1.85;100.00;98975.55;1697547;83;21077;-68
2021/11/28 09:31:43;;;;;;;29.25;15.20;;;;;;;1.91;100.00;98970.67;1697631;84;21089;-68
2021/11/28 09:34:10;;;;;;;30.02;14.28;;;;;;;1.91;100.00;98970.67;1697879;84;21039;-69
2021/11/28 09:36:37;;;;;;;37.58;18.45;;;;;;;1.98;100.00;98969.66;1697547;84;21688;-68
2021/11/28 09:39:04;;;;;;;39.33;17.20;;;;;;;2.01;100.00;98961.37;1697883;84;21508;-69
2021/11/28 09:41:37;;;;;;;25.27;14.53;;;;;;;2.05;100.00;98958.28;1697816;84;21069;-69
2021/11/28 09:44:08;;;;;;;44.95;22.10;;;;;;;2.02;100.00;98950.53;1697996;84;21046;-70
2021/11/28 09:46:37;;;;;;;45.92;20.77;;;;;;;2.04;100.00;98946.16;1697733;84;22339;-69
2021/11/28 09:49:06;;;;;;;56.50;22.27;;;;;;;2.04;100.00;98946.16;1697755;84;21149;-69
2021/11/28 09:51:34;;;;;;;122.17;47.27;;;;;;;2.08;100.00;98943.47;1698037;84;21157;-70
2021/11/28 09:54:04;;;;;;;66.00;23.73;;;;;;;2.12;100.00;98937.78;1697942;84;21070;-70
2021/11/28 09:56:36;;;;;;;35.48;19.40;;;;;;;2.22;100.00;98948.36;1698389;84;21113;-69
2021/11/28 09:59:07;;;;;;;35.20;15.93;;;;;;;2.24;100.00;98949.19;1698025;84;21062;-69
2021/11/28 10:01:35;;;;;;;38.90;16.30;;;;;;;2.29;100.00;98942.14;1698221;84;21105;-70
2021/11/28 10:04:02;;;;;;;32.88;19.67;;;;;;;2.35;100.00;98940.28;1697893;83;22078;-69
2021/11/28 10:06:30;;;;;;;34.80;17.73;;;;;;;2.42;100.00;98945.78;1696945;84;22156;-71
2021/11/28 10:08:57;;;;;;;29.70;18.00;;;;;;;2.46;100.00;98948.69;1696528;83;21057;-69
2021/11/28 10:11:45;;;;;;;34.43;20.27;;;;;;;2.46;100.00;98944.38;1696380;84;21122;-71
2021/11/28 10:14:15;;;;;;;46.53;20.68;;;;;;;2.49;100.00;98942.14;1695813;84;21161;-69
2021/11/28 10:16:42;;;;;;;39.40;17.80;;;;;;;2.60;100.00;98934.95;1696022;84;21150;-69
2021/11/28 10:19:09;;;;;;;39.35;18.45;;;;;;;2.60;100.00;98934.95;1696281;84;21137;-69
2021/11/28 10:21:38;;;;;;;45.98;23.67;;;;;;;2.66;100.00;98932.19;1696070;84;21360;-68
2021/11/28 10:24:09;;;;;;;31.62;17.73;;;;;;;2.71;100.00;98931.66;1708980;83;21040;-68
2021/11/28 10:27:01;;;;;;;45.52;18.92;;;;;;;2.77;100.00;98928.48;1711352;83;21463;-69
2021/11/28 10:29:30;;;;;;;;;;;;;;;2.82;100.00;98942.22;1667582;84;21192;-69
2021/11/28 10:31:59;;;;;;;28.80;16.82;;;;;;;2.91;100.00;98932.89;1698552;83;20251;-69
2021/11/28 10:34:33;;;;;;;55.38;35.58;;;;;;;2.97;100.00;98931.45;1686782;83;21179;-69
2021/11/28 10:37:15;;;;;;;39.03;23.47;;;;;;;2.99;100.00;98936.17;1696504;84;21075;-68
2021/11/28 10:39:58;;;;;;;50.85;27.52;;;;;;;2.99;100.00;98925.77;1695229;84;21078;-69
2021/11/28 10:42:32;;;;;;;57.50;30.48;;;;;;;2.98;100.00;98916.23;1693093;83;22143;-66
2021/11/28 10:45:19;;;;;;;38.13;24.95;;;;;;;2.98;100.00;98916.23;1700753;83;21791;-71
2021/11/28 10:47:51;;;;;;;39.35;21.20;;;;;;;3.01;100.00;98905.74;1693474;84;21054;-71
2021/11/28 10:50:22;;;;;;;;;;;;;;;3.08;100.00;98916.84;1700098;84;21153;-70
2021/11/28 10:53:10;;;;;;;37.15;20.90;;;;;;;3.14;100.00;98907.59;1697328;84;20262;-70
2021/11/28 10:55:50;;;;;;;39.85;21.07;;;;;;;3.18;100.00;98903.17;1693476;84;21874;-69
2021/11/28 10:58:21;;;;;;;30.48;17.35;;;;;;;3.21;100.00;98906.53;1702745;83;22267;-70
2021/11/28 11:00:54;;;;;;;;;;;;;;;3.32;100.00;98908.86;1700195;84;21113;-69
2021/11/28 11:03:25;;;;;;;49.90;24.45;;;;;;;3.42;100.00;98901.19;1699527;81;20622;-71
2021/11/28 11:05:54;;;;;;;40.20;21.33;;;;;;;3.50;100.00;98895.34;1714621;83;21587;-71
2021/11/28 11:08:24;;;;;;;40.73;21.70;;;;;;;3.62;100.00;98889.38;1698124;83;21154;-70
2021/11/28 11:11:07;;;;;;;41.13;23.45;;;;;;;3.66;100.00;98888.37;1698176;83;21646;-70
2021/11/28 11:13:55;;;;;;;36.90;22.37;;;;;;;3.66;100.00;98885.77;1692214;83;21087;-69
2021/11/28 11:16:35;;;;;;;35.88;21.97;;;;;;;3.75;100.00;98878.56;1695916;83;21079;-71
2021/11/28 11:19:36;;;;;;;44.27;23.62;;;;;;;3.81;100.00;98881.42;1694431;84;21141;-71
2021/11/28 11:22:15;;;;;;;48.70;25.85;;;;;;;3.92;100.00;98889.78;1697042;84;22004;-69
2021/11/28 11:24:51;;;;;;;41.98;22.35;;;;;;;4.00;100.00;98883.02;1701962;83;21068;-71
2021/11/28 11:27:16;;;;;;;34.08;20.20;;;;;;;4.04;100.00;98889.01;1697168;83;21082;-71
2021/11/28 11:29:48;;;;;;;33.70;19.98;;;;;;;3.89;100.00;98882.06;1704777;83;21092;-71
2021/11/28 11:32:25;;;;;;;43.02;21.37;;;;;;;3.86;100.00;98880.83;1696025;83;21596;-70
2021/11/28 11:34:59;;;;;;;35.78;20.30;;;;;;;3.84;100.00;98874.81;1698984;83;21112;-70
2021/11/28 11:37:28;;;;;;;33.10;19.67;;;;;;;3.84;100.00;98878.72;1697262;84;21113;-70
2021/11/28 11:39:57;;;;;;;30.88;17.90;;;;;;;3.81;100.00;98882.73;1695448;84;21122;-70
2021/11/28 11:42:28;;;;;;;37.00;21.35;;;;;;;3.85;100.00;98883.05;1696669;83;21105;-70
2021/11/28 11:44:55;;;;;;;38.17;22.10;;;;;;;3.89;100.00;98888.58;1683057;83;21101;-70
2021/11/28 11:47:22;;;;;;;33.78;19.40;;;;;;;3.90;100.00;98885.52;1697449;84;21142;-71
2021/11/28 11:49:49;;;;;;;45.33;23.45;;;;;;;3.89;100.00;98888.58;1696336;83;21885;-69
2021/11/28 11:52:20;;;;;;;45.10;25.62;;;;;;;3.87;100.00;98887.77;1696311;84;21659;-69
2021/11/28 11:54:51;;;;;;;40.63;22.60;;;;;;;3.91;100.00;98889.39;1696983;83;21073;-69
2021/11/28 11:57:25;;;;;;;44.50;25.45;;;;;;;3.93;100.00;98884.11;1699426;83;21157;-70
2021/11/28 12:00:29;;;;;;;46.75;24.70;;;;;;;3.96;100.00;98884.89;1696242;84;21169;-69
2021/11/28 12:02:56;;;;;;;44.40;24.70;;;;;;;4.02;100.00;98880.38;1704994;83;21567;-69
2021/11/28 12:05:30;;;;;;;35.00;22.13;;;;;;;4.06;100.00;98876.80;1696517;84;21079;-70
2021/11/28 12:08:19;;;;;;;37.65;21.90;;;;;;;4.09;100.00;98881.90;1696547;84;21117;-69
2021/11/28 12:11:02;;;;;;;38.00;21.10;;;;;;;4.10;100.00;98890.14;1697088;83;21604;-71
2021/11/28 12:13:40;;;;;;;47.15;25.00;;;;;;;4.12;100.00;98880.06;1704890;83;21165;-71
2021/11/28 12:16:15;;;;;;;40.15;23.22;;;;;;;4.15;100.00;98880.42;1694070;83;21129;-70
2021/11/28 12:18:44;;;;;;;45.12;24.30;;;;;;;4.19;100.00;98882.03;1696797;83;21117;-70
2021/11/28 12:21:18;;;;;;;36.38;22.20;;;;;;;4.19;100.00;98875.52;1697430;83;21144;-69
2021/11/28 12:23:58;;;;;;;36.70;23.42;;;;;;;4.17;100.00;98864.29;1697067;84;21097;-71
2021/11/28 12:26:33;;;;;;;34.80;20.23;;;;;;;4.18;100.00;98860.77;1697655;83;21189;-68
2021/11/28 12:29:17;;;;;;;37.53;21.27;;;;;;;4.20;100.00;98851.16;1696729;84;21114;-70
2021/11/28 12:31:53;;;;;;;47.05;23.25;;;;;;;4.19;100.00;98843.80;1696804;83;21057;-69
2021/11/28 12:34:29;;;;;;;43.63;24.20;;;;;;;4.23;100.00;98856.26;1696560;83;21145;-70
2021/11/28 12:36:57;;;;;;;43.80;23.35;;;;;;;4.16;100.00;98853.45;1695801;84;21061;-70
2021/11/28 12:39:34;;;;;;;44.40;23.80;;;;;;;4.15;100.00;98850.45;1683465;83;21097;-69
2021/11/28 12:42:10;;;;;;;43.42;22.65;;;;;;;4.15;100.00;98855.66;1697590;84;21156;-70
2021/11/28 12:44:51;;;;;;;41.15;23.05;;;;;;;4.14;100.00;98860.45;1702544;83;21145;-71
2021/11/28 12:47:21;;;;;;;42.25;22.32;;;;;;;4.12;100.00;98859.68;1692402;83;21098;-69
2021/11/28 12:49:52;;;;;;;35.15;20.32;;;;;;;4.08;100.00;98849.79;1714730;83;24100;-70
2021/11/28 12:52:30;;;;;;;38.63;21.17;;;;;;;4.06;100.00;98846.38;1712931;83;21152;-70
2021/11/28 12:55:14;;;;;;;37.35;23.52;;;;;;;4.02;100.00;98844.76;1707639;83;21064;-70
2021/11/28 12:58:03;;;;;;;42.05;22.42;;;;;;;3.98;100.00;98843.17;1695384;82;21493;-69
2021/11/28 13:00:48;;;;;;;36.28;22.10;;;;;;;3.93;100.00;98837.23;1699862;83;21052;-70
2021/11/28 13:03:20;;;;;;;35.65;21.25;;;;;;;3.89;100.00;98844.30;1697293;84;21155;-71
2021/11/28 13:05:50;;;;;;;48.80;24.45;;;;;;;3.85;100.00;98842.68;1697510;84;21349;-70
2021/11/28 13:08:26;;;;;;;52.65;24.05;;;;;;;3.85;100.00;98845.28;1697179;84;21080;-69
2021/11/28 13:10:55;;;;;;;35.48;21.27;;;;;;;3.80;100.00;98847.18;1696261;83;21644;-71
2021/11/28 13:13:32;;;;;;;35.52;19.85;;;;;;;3.81;100.00;98835.85;1694701;83;26988;-70
2021/11/28 13:16:08;;;;;;;35.43;21.27;;;;;;;3.83;100.00;98830.15;1709872;83;21082;-70